Time;durP1;ratioP1;P1;durP2;ratioP2;P2;SDS_P1;SDS_P2;PMS_P1;PMS_P2;Temp;Humidity;BMP_temperature;BMP_pressure;BME280_temperature;BME280_humidity;BME280_pressure;Samples;Min_cycle;Max_cycle;Signal;HPM_P1;HPM_P2
2022/08/14 00:00:38;;;;;;;2.65;1.10;;;29.20;85.10;;;;;;5093771;28;20020;-51
2022/08/14 00:03:04;;;;;;;1.52;1.00;;;;;;;;;;5093436;28;20036;-52
2022/08/14 00:05:30;;;;;;;0.80;0.80;;;;;;;;;;5093415;28;20024;-55
2022/08/14 00:07:56;;;;;;;0.70;0.70;;;;;;;;;;5093316;28;20047;-51
2022/08/14 00:10:22;;;;;;;1.00;0.82;;;29.10;52.70;;;;;;5093306;28;20020;-51
2022/08/14 00:12:52;;;;;;;0.93;0.93;;;29.10;76.60;;;;;;5092778;28;20032;-52
2022/08/14 00:15:26;;;;;;;1.17;0.80;;;29.20;85.60;;;;;;5092813;28;20028;-51
2022/08/14 00:17:52;;;;;;;0.85;0.85;;;;;;;;;;5093238;28;20040;-52
2022/08/14 00:20:24;;;;;;;1.55;1.10;;;29.20;85.00;;;;;;5093115;28;20078;-51
2022/08/14 00:22:50;;;;;;;0.90;0.90;;;;;;;;;;5093199;28;20028;-51
2022/08/14 00:25:16;;;;;;;1.08;0.90;;;;;;;;;;5093042;28;20360;-54
2022/08/14 00:27:42;;;;;;;1.33;1.00;;;;;;;;;;5093030;28;20440;-52
2022/08/14 00:30:09;;;;;;;1.08;1.00;;;29.00;50.10;;;;;;5092899;28;20059;-53
2022/08/14 00:32:35;;;;;;;0.90;0.90;;;;;;;;;;5093165;28;20020;-50
2022/08/14 00:35:03;;;;;;;1.73;0.90;;;29.10;50.30;;;;;;5092972;28;20039;-51
2022/08/14 00:37:31;;;;;;;1.83;1.20;;;29.20;85.50;;;;;;5092732;28;20065;-53
2022/08/14 00:39:57;;;;;;;0.77;0.77;;;28.80;85.40;;;;;;5092829;28;20109;-50
2022/08/14 00:42:23;;;;;;;1.00;0.93;;;28.90;85.60;;;;;;5092766;28;20066;-53
2022/08/14 00:44:49;;;;;;;1.30;1.20;;;29.10;85.50;;;;;;5092797;28;20068;-51
2022/08/14 00:47:16;;;;;;;2.85;1.42;;;29.20;85.80;;;;;;5092688;28;20034;-52
2022/08/14 00:49:43;;;;;;;1.30;1.20;;;29.40;85.60;;;;;;5092706;28;20031;-51
2022/08/14 00:52:14;;;;;;;1.13;1.02;;;29.00;46.30;;;;;;5092948;28;20384;-50
2022/08/14 00:54:42;;;;;;;1.00;0.90;;;29.10;50.10;;;;;;5092537;28;20062;-54
2022/08/14 00:57:08;;;;;;;2.35;1.08;;;;;;;;;;5092368;28;20067;-51
2022/08/14 00:59:34;;;;;;;1.45;1.13;;;;;;;;;;5092505;28;20434;-50
2022/08/14 01:02:01;;;;;;;0.93;0.93;;;29.00;49.80;;;;;;5092567;28;20028;-52
2022/08/14 01:04:30;;;;;;;1.20;1.20;;;29.10;85.80;;;;;;5092489;28;20031;-51
2022/08/14 01:06:57;;;;;;;1.20;1.10;;;29.40;85.80;;;;;;5092510;28;20032;-55
2022/08/14 01:09:23;;;;;;;1.30;1.20;;;29.40;85.70;;;;;;5092501;28;20028;-52
2022/08/14 01:11:52;;;;;;;2.35;1.10;;;29.40;85.60;;;;;;5092462;28;20028;-51
2022/08/14 01:14:18;;;;;;;1.38;0.90;;;29.00;48.90;;;;;;5092404;28;20540;-51
2022/08/14 01:16:46;;;;;;;1.90;1.38;;;29.20;85.40;;;;;;5092301;28;20036;-54
2022/08/14 01:21:57;;;;;;;1.17;1.10;;;28.90;85.50;;;;;;5092696;28;20027;-52
2022/08/14 01:24:24;;;;;;;1.23;1.13;;;29.40;85.60;;;;;;5092474;28;20082;-50
2022/08/14 01:26:50;;;;;;;1.33;1.05;;;;;;;;;;5096519;28;20032;-51
2022/08/14 01:29:18;;;;;;;1.40;1.30;;;;;;;;;;5096524;28;20048;-53
2022/08/14 01:31:45;;;;;;;1.75;1.30;;;;;;;;;;5096476;28;20031;-54
2022/08/14 01:34:11;;;;;;;1.42;1.30;;;29.40;85.70;;;;;;5096378;28;20013;-55
2022/08/14 01:36:37;;;;;;;1.02;1.00;;;;;;;;;;5096216;28;20039;-55
2022/08/14 01:39:12;;;;;;;0.95;0.93;;;28.90;46.20;;;;;;5096212;28;20035;-55
2022/08/14 01:41:38;;;;;;;1.42;1.33;;;28.50;60.50;;;;;;5096246;28;20028;-55
2022/08/14 01:44:11;;;;;;;1.77;1.30;;;28.90;69.00;;;;;;5096153;28;20021;-53
2022/08/14 01:46:39;;;;;;;1.40;1.25;;;29.40;85.60;;;;;;5096250;28;20063;-55
2022/08/14 01:49:07;;;;;;;1.25;1.17;;;28.90;85.00;;;;;;5096166;28;20020;-55
2022/08/14 01:51:33;;;;;;;1.50;1.40;;;28.70;85.00;;;;;;5096059;28;20028;-54
2022/08/14 01:54:08;;;;;;;1.38;1.10;;;28.90;46.10;;;;;;5095874;28;20036;-54
2022/08/14 01:56:38;;;;;;;1.38;1.25;;;28.40;56.40;;;;;;5095733;28;20052;-55
2022/08/14 01:59:21;;;;;;;2.17;1.17;;;29.30;75.10;;;;;;5095932;28;20024;-50
2022/08/14 02:01:52;;;;;;;1.67;1.35;;;29.20;85.60;;;;;;5095839;28;20107;-52
2022/08/14 02:04:19;;;;;;;1.25;1.00;;;28.90;49.90;;;;;;5095843;28;20028;-53
2022/08/14 02:06:46;;;;;;;1.50;1.40;;;29.40;85.80;;;;;;5095835;28;20031;-51
2022/08/14 02:09:12;;;;;;;1.40;1.30;;;;;;;;;;5095757;28;20028;-51
2022/08/14 02:11:38;;;;;;;1.45;1.35;;;29.30;85.70;;;;;;5095886;28;20027;-51
2022/08/14 02:14:07;;;;;;;1.30;1.20;;;29.20;66.00;;;;;;5095613;28;20038;-53
2022/08/14 02:16:37;;;;;;;1.38;1.27;;;28.90;50.20;;;;;;5095456;28;20107;-51
2022/08/14 02:19:09;;;;;;;1.55;1.45;;;29.20;85.70;;;;;;5095585;28;20599;-51
2022/08/14 02:21:35;;;;;;;1.30;1.13;;;28.80;85.20;;;;;;5095688;28;20056;-51
2022/08/14 02:24:03;;;;;;;1.38;1.27;;;29.10;85.70;;;;;;5095547;28;20617;-49
2022/08/14 02:26:36;;;;;;;1.60;1.50;;;29.00;85.70;;;;;;5095417;28;20028;-52
2022/08/14 02:29:08;;;;;;;1.20;1.10;;;29.00;79.70;;;;;;5095374;28;20028;-53
2022/08/14 02:31:39;;;;;;;1.60;1.50;;;29.20;85.90;;;;;;5095240;28;20028;-51
2022/08/14 02:34:17;;;;;;;1.92;1.38;;;29.00;85.60;;;;;;5095260;28;20110;-53
2022/08/14 02:36:44;;;;;;;1.35;1.25;;;28.70;85.40;;;;;;5093965;28;20055;-51
2022/08/14 02:39:10;;;;;;;1.42;1.33;;;28.80;48.40;;;;;;5095135;28;20024;-54
2022/08/14 02:41:37;;;;;;;1.60;1.50;;;28.90;85.40;;;;;;5095089;28;20351;-52
2022/08/14 02:44:05;;;;;;;2.78;1.50;;;29.00;85.60;;;;;;5095199;28;20028;-52
2022/08/14 02:46:31;;;;;;;2.42;1.60;;;;;;;;;;5095271;28;20042;-53
2022/08/14 02:48:58;;;;;;;2.95;1.10;;;28.60;85.30;;;;;;5095157;28;20077;-52
2022/08/14 02:51:24;;;;;;;1.73;1.63;;;;;;;;;;5094927;28;20032;-52
2022/08/14 02:53:50;;;;;;;2.92;1.55;;;;;;;;;;5094793;28;20024;-51
2022/08/14 02:56:18;;;;;;;1.98;1.58;;;28.80;50.20;;;;;;5094673;28;20094;-54
2022/08/14 02:58:48;;;;;;;1.65;1.55;;;28.80;50.20;;;;;;5094673;28;20035;-51
2022/08/14 03:01:15;;;;;;;1.55;1.45;;;28.70;50.00;;;;;;5094798;28;20028;-55
2022/08/14 03:03:43;;;;;;;2.03;1.88;;;28.80;49.50;;;;;;5094654;28;20111;-55
2022/08/14 03:06:09;;;;;;;1.67;1.58;;;28.60;85.40;;;;;;5094669;28;20020;-56
2022/08/14 03:08:36;;;;;;;1.58;1.48;;;28.70;85.40;;;;;;5094576;28;20030;-57
2022/08/14 03:11:08;;;;;;;1.52;1.42;;;29.00;85.40;;;;;;5094503;28;20030;-56
2022/08/14 03:13:37;;;;;;;1.52;1.42;;;28.80;50.20;;;;;;5094732;28;20024;-56
2022/08/14 03:16:05;;;;;;;1.75;1.60;;;28.30;84.80;;;;;;5094459;28;20024;-55
2022/08/14 03:18:31;;;;;;;2.10;1.80;;;28.50;85.20;;;;;;5094342;28;20071;-57
2022/08/14 03:21:03;;;;;;;1.65;1.55;;;29.10;85.60;;;;;;5094422;28;20028;-55
2022/08/14 03:23:33;;;;;;;1.50;1.40;;;29.10;85.40;;;;;;5094384;28;20036;-55
2022/08/14 03:25:59;;;;;;;;;;;28.60;50.70;;;;;;5094982;28;20099;-56
2022/08/14 03:28:28;;;;;;;1.88;1.77;;;28.70;47.90;;;;;;5094502;28;19904;-56
2022/08/14 03:30:54;;;;;;;2.13;1.95;;;;;;;;;;5094009;28;20620;-57
2022/08/14 03:33:20;;;;;;;1.80;1.70;;;;;;;;;;5094074;28;20020;-55
2022/08/14 03:35:46;;;;;;;1.63;1.50;;;;;;;;;;5094039;28;20032;-57
2022/08/14 03:38:12;;;;;;;2.42;2.08;;;;;;;;;;5093978;28;20039;-56
2022/08/14 03:40:39;;;;;;;2.28;1.67;;;28.70;50.10;;;;;;5093998;28;20020;-56
2022/08/14 03:43:09;;;;;;;2.17;1.90;;;28.40;85.40;;;;;;5093849;28;20024;-56
2022/08/14 03:45:37;;;;;;;1.95;1.85;;;28.70;50.20;;;;;;5094123;28;20028;-56
2022/08/14 03:48:18;;;;;;;1.77;1.67;;;28.90;85.80;;;;;;5093523;28;20058;-55
2022/08/14 03:50:46;;;;;;;2.13;2.03;;;28.50;50.10;;;;;;5094019;28;20054;-56
2022/08/14 03:53:13;;;;;;;2.38;1.98;;;28.70;49.50;;;;;;5093975;28;20024;-56
2022/08/14 03:55:40;;;;;;;1.80;1.67;;;28.50;85.50;;;;;;5093716;28;20109;-56
2022/08/14 03:58:06;;;;;;;1.95;1.85;;;28.60;50.10;;;;;;5093488;28;20043;-56
2022/08/14 04:00:34;;;;;;;2.30;2.10;;;28.50;85.60;;;;;;5093545;28;20031;-56
2022/08/14 04:03:05;;;;;;;2.08;1.90;;;28.60;49.50;;;;;;5093457;28;20035;-57
2022/08/14 04:05:31;;;;;;;2.22;2.03;;;;;;;;;;5093505;28;20024;-56
2022/08/14 04:07:57;;;;;;;2.95;1.73;;;29.00;67.60;;;;;;5093406;28;20053;-57
2022/08/14 04:10:23;;;;;;;2.33;2.13;;;28.40;85.60;;;;;;5093392;28;20024;-55
2022/08/14 04:12:49;;;;;;;2.13;2.03;;;28.30;85.50;;;;;;5093331;28;20115;-56
2022/08/14 04:15:18;;;;;;;2.45;2.25;;;28.90;86.00;;;;;;5093378;28;20502;-55
2022/08/14 04:17:44;;;;;;;2.65;2.15;;;28.60;85.90;;;;;;5093216;28;20185;-56
2022/08/14 04:20:11;;;;;;;1.98;1.88;;;28.40;85.40;;;;;;5093182;28;20054;-55
2022/08/14 04:22:42;;;;;;;2.58;2.33;;;28.20;85.40;;;;;;5093191;28;20111;-56
2022/08/14 04:25:09;;;;;;;3.45;2.08;;;28.30;58.10;;;;;;5093334;28;20023;-56
2022/08/14 04:27:35;;;;;;;2.47;2.28;;;28.90;85.40;;;;;;5093048;28;20028;-56
2022/08/14 04:30:03;;;;;;;2.00;1.77;;;28.30;85.40;;;;;;5093226;28;20430;-54
2022/08/14 04:32:28;;;;;;;2.00;1.80;;;28.80;85.60;;;;;;5093031;28;20023;-56
2022/08/14 04:34:54;;;;;;;2.33;2.08;;;;;;;;;;5092917;28;20028;-55
2022/08/14 04:45:40;;;;;;;2.35;2.17;;;28.30;85.60;;;;;;5093144;28;20394;-56
2022/08/14 04:48:12;;;;;;;2.25;2.05;;;28.60;65.80;;;;;;5092752;28;20024;-56
2022/08/14 04:50:43;;;;;;;1.90;1.80;;;28.40;85.40;;;;;;5092765;28;20054;-55
2022/08/14 04:53:11;;;;;;;2.30;2.10;;;28.40;85.50;;;;;;5092972;28;20026;-54
2022/08/14 04:55:37;;;;;;;2.22;2.13;;;29.00;86.00;;;;;;5092430;28;20032;-55
2022/08/14 04:58:04;;;;;;;2.15;1.95;;;28.30;85.20;;;;;;5092484;28;20032;-56
2022/08/14 05:00:30;;;;;;;2.00;1.90;;;27.80;49.10;;;;;;5092000;28;20028;-56
2022/08/14 05:02:56;;;;;;;2.70;2.00;;;;;;;;;;5092816;28;20103;-57
2022/08/14 05:05:23;;;;;;;2.15;2.05;;;28.60;50.30;;;;;;5092440;28;20052;-55
2022/08/14 05:07:50;;;;;;;2.20;2.00;;;28.80;81.20;;;;;;5092475;28;20024;-56
2022/08/14 05:10:16;;;;;;;2.30;2.20;;;;;;;;;;5092729;28;20442;-55
2022/08/14 05:12:43;;;;;;;2.70;2.40;;;;;;;;;;5092455;28;20071;-55
2022/08/14 05:15:09;;;;;;;2.17;1.92;;;28.20;85.20;;;;;;5092353;28;20047;-56
2022/08/14 05:17:41;;;;;;;2.33;2.13;;;28.20;85.40;;;;;;5074125;28;20067;-56
2022/08/14 05:20:08;;;;;;;2.30;2.03;;;29.00;85.90;;;;;;5092395;28;20390;-57
2022/08/14 05:22:34;;;;;;;2.63;2.42;;;;;;;;;;5092287;28;20035;-57
2022/08/14 05:25:02;;;;;;;2.20;2.00;;;;;;;;;;5092228;28;20024;-56
2022/08/14 05:27:28;;;;;;;2.38;2.15;;;;;;;;;;5092276;28;20028;-57
2022/08/14 05:29:54;;;;;;;2.35;2.22;;;28.50;72.50;;;;;;5092302;28;20470;-56
2022/08/14 05:32:20;;;;;;;2.05;1.95;;;28.60;48.70;;;;;;5092183;28;20103;-56
2022/08/14 05:34:46;;;;;;;2.35;2.15;;;;;;;;;;5092175;28;20020;-57
2022/08/14 05:37:13;;;;;;;4.55;2.10;;;;;;;;;;5092106;28;20391;-56
2022/08/14 05:39:42;;;;;;;2.03;1.88;;;;;;;;;;5092209;28;20020;-56
2022/08/14 05:42:08;;;;;;;2.20;2.00;;;;;;;;;;5092142;28;20478;-55
2022/08/14 05:44:34;;;;;;;2.58;2.38;;;28.10;69.80;;;;;;5092131;28;20103;-55
2022/08/14 05:47:00;;;;;;;2.13;1.92;;;;;;;;;;5092178;28;20410;-53
2022/08/14 05:49:27;;;;;;;2.92;2.15;;;28.20;85.40;;;;;;5092249;28;20377;-56
2022/08/14 05:51:52;;;;;;;2.03;1.92;;;28.60;85.80;;;;;;5092042;28;20043;-55
2022/08/14 05:54:18;;;;;;;2.55;2.00;;;;;;;;;;5091949;28;20024;-56
2022/08/14 05:56:45;;;;;;;2.72;2.42;;;28.80;65.80;;;;;;5091757;28;20084;-55
2022/08/14 05:59:11;;;;;;;2.35;2.15;;;28.20;79.40;;;;;;5091954;28;20382;-56
2022/08/14 06:01:36;;;;;;;2.33;2.13;;;28.10;85.40;;;;;;5091974;28;20082;-56
2022/08/14 06:04:03;;;;;;;2.30;2.20;;;29.40;50.00;;;;;;5091941;28;20409;-55
2022/08/14 06:06:28;;;;;;;2.38;2.17;;;28.20;85.60;;;;;;5091975;28;20028;-56
2022/08/14 06:08:54;;;;;;;2.33;2.17;;;;;;;;;;5091886;28;20076;-56
2022/08/14 06:11:20;;;;;;;2.47;2.28;;;;;;;;;;5093471;28;20119;-57
2022/08/14 06:13:46;;;;;;;2.20;2.08;;;28.10;85.10;;;;;;5095914;28;20035;-56
2022/08/14 06:16:16;;;;;;;2.75;2.17;;;28.10;56.30;;;;;;5095583;28;20028;-56
2022/08/14 06:18:42;;;;;;;2.33;2.13;;;;;;;;;;5095495;28;20067;-55
2022/08/14 06:21:08;;;;;;;2.15;1.95;;;;;;;;;;5095518;28;20028;-55
2022/08/14 06:23:34;;;;;;;2.50;2.25;;;;;;;;;;5095550;28;20121;-56
2022/08/14 06:26:00;;;;;;;2.33;2.13;;;28.50;52.60;;;;;;5095710;28;20446;-56
2022/08/14 06:28:26;;;;;;;2.60;2.38;;;28.60;47.70;;;;;;5095380;28;20030;-56
2022/08/14 06:30:52;;;;;;;3.00;2.50;;;;;;;;;;5095263;28;20063;-56
2022/08/14 06:33:19;;;;;;;2.33;2.13;;;;;;;;;;5095240;28;20030;-55
2022/08/14 06:35:46;;;;;;;2.30;2.10;;;28.40;85.10;;;;;;5095184;28;20111;-55
2022/08/14 06:38:18;;;;;;;2.33;2.13;;;28.60;46.00;;;;;;5095175;28;20077;-55
2022/08/14 06:40:44;;;;;;;2.58;2.38;;;;;;;;;;5095123;28;20035;-56
2022/08/14 06:43:11;;;;;;;1.90;1.80;;;28.70;49.60;;;;;;5095131;28;20057;-57
2022/08/14 06:45:39;;;;;;;2.47;2.28;;;28.20;84.90;;;;;;5095000;28;20024;-54
2022/08/14 06:48:13;;;;;;;2.20;2.00;;;28.40;49.70;;;;;;5094924;28;20035;-54
2022/08/14 06:50:39;;;;;;;2.35;2.15;;;28.50;85.30;;;;;;5094935;28;20020;-55
2022/08/14 06:53:06;;;;;;;2.63;2.42;;;28.20;85.20;;;;;;5095173;28;20020;-54
2022/08/14 06:55:32;;;;;;;3.03;2.70;;;;;;;;;;5094591;28;20127;-55
2022/08/14 06:57:58;;;;;;;2.33;2.20;;;;;;;;;;5094751;28;20167;-55
2022/08/14 07:00:27;;;;;;;2.33;2.17;;;28.60;50.00;;;;;;5094821;28;20495;-53
2022/08/14 07:05:55;;;;;;;2.40;2.20;;;28.50;85.50;;;;;;5094989;28;20035;-55
2022/08/14 07:08:25;;;;;;;2.30;2.10;;;28.30;85.00;;;;;;5094649;28;20028;-54
2022/08/14 07:10:52;;;;;;;2.13;1.92;;;28.50;85.20;;;;;;5094839;28;20024;-55
2022/08/14 07:13:18;;;;;;;2.45;2.25;;;28.30;85.00;;;;;;5094527;28;20474;-54
2022/08/14 07:15:47;;;;;;;2.95;2.75;;;28.20;85.00;;;;;;5094417;28;20020;-55
2022/08/14 07:18:13;;;;;;;2.40;2.20;;;28.40;85.40;;;;;;5094350;28;20028;-55
2022/08/14 07:20:40;;;;;;;2.75;2.47;;;28.60;50.00;;;;;;5094595;28;20424;-55
2022/08/14 07:23:09;;;;;;;2.50;2.30;;;28.40;49.70;;;;;;5093922;28;20048;-55
2022/08/14 07:25:36;;;;;;;3.78;2.45;;;28.50;85.20;;;;;;5094233;28;20017;-55
2022/08/14 07:28:12;;;;;;;2.17;2.08;;;28.80;50.10;;;;;;5094169;28;20063;-55
2022/08/14 07:30:38;;;;;;;2.30;2.10;;;28.90;85.50;;;;;;5094393;28;20069;-55
2022/08/14 07:33:04;;;;;;;2.08;1.88;;;;;;;;;;5094315;28;20036;-55
2022/08/14 07:35:31;;;;;;;2.63;2.42;;;;;;;;;;5094043;28;20526;-54
2022/08/14 07:37:56;;;;;;;2.33;2.13;;;28.20;84.80;;;;;;5093929;28;20062;-54
2022/08/14 07:40:22;;;;;;;2.78;2.05;;;;;;;;;;5093904;28;20016;-53
2022/08/14 07:42:48;;;;;;;2.58;2.38;;;;;;;;;;5093865;28;20120;-54
2022/08/14 07:45:14;;;;;;;2.28;2.17;;;;;;;;;;5093863;28;20497;-55
2022/08/14 07:47:41;;;;;;;2.60;2.40;;;28.70;49.50;;;;;;5093801;28;20032;-53
2022/08/14 07:50:12;;;;;;;2.30;2.20;;;28.40;85.20;;;;;;5093781;28;20049;-54
2022/08/14 07:52:39;;;;;;;2.35;2.15;;;;;;;;;;5093746;28;20020;-55
2022/08/14 07:55:07;;;;;;;2.20;2.00;;;29.00;85.40;;;;;;5093875;28;20032;-55
2022/08/14 07:57:32;;;;;;;2.45;2.30;;;28.20;84.90;;;;;;5093419;28;20043;-55
2022/08/14 07:59:58;;;;;;;2.22;2.13;;;;;;;;;;5093563;28;20020;-54
2022/08/14 08:02:29;;;;;;;2.63;2.22;;;28.90;58.10;;;;;;5093519;28;20028;-55
2022/08/14 08:04:55;;;;;;;2.70;2.50;;;28.30;85.00;;;;;;5093731;28;20035;-54
2022/08/14 08:07:28;;;;;;;2.40;2.20;;;28.30;85.00;;;;;;5093427;28;20038;-54
2022/08/14 08:09:59;;;;;;;2.20;2.05;;;28.70;49.90;;;;;;5093402;28;20052;-55
2022/08/14 08:12:25;;;;;;;2.10;2.00;;;28.40;85.20;;;;;;5093673;28;20024;-53
2022/08/14 08:14:51;;;;;;;3.40;2.08;;;28.60;85.40;;;;;;5093357;28;20538;-54
2022/08/14 08:17:19;;;;;;;2.20;2.10;;;28.40;85.30;;;;;;5093200;28;20131;-55
2022/08/14 08:19:47;;;;;;;2.65;2.45;;;28.80;85.40;;;;;;5093214;28;20012;-54
2022/08/14 08:22:13;;;;;;;2.22;2.03;;;;;;;;;;5093172;28;20024;-54
2022/08/14 08:24:39;;;;;;;2.55;2.35;;;;;;;;;;5093141;28;20480;-54
2022/08/14 08:27:18;;;;;;;2.38;2.28;;;28.70;85.60;;;;;;5093283;28;20127;-53
2022/08/14 08:29:44;;;;;;;2.70;2.50;;;28.30;66.40;;;;;;5093087;28;20470;-55
2022/08/14 08:32:10;;;;;;;2.40;2.20;;;;;;;;;;5093099;28;20057;-53
2022/08/14 08:34:44;;;;;;;2.28;2.17;;;28.70;46.20;;;;;;5092094;28;20063;-52
2022/08/14 08:37:10;;;;;;;2.15;1.95;;;;;;;;;;5092843;28;20046;-54
2022/08/14 08:39:46;;;;;;;2.33;2.13;;;29.10;55.60;;;;;;5092830;28;20023;-54
2022/08/14 08:42:12;;;;;;;2.30;2.20;;;;;;;;;;5092867;28;20024;-54
2022/08/14 08:44:38;;;;;;;3.47;2.13;;;;;;;;;;5092795;28;20022;-53
2022/08/14 08:47:06;;;;;;;2.63;2.42;;;;;;;;;;5092703;28;20413;-53
2022/08/14 08:49:41;;;;;;;2.05;1.95;;;29.40;50.90;;;;;;5092764;28;20517;-53
2022/08/14 08:52:07;;;;;;;2.40;2.20;;;29.20;85.60;;;;;;5092936;28;20031;-56
2022/08/14 08:54:33;;;;;;;2.40;2.20;;;29.40;84.70;;;;;;5092634;28;20600;-56
2022/08/14 08:56:58;;;;;;;2.40;2.15;;;29.40;85.70;;;;;;5092319;28;20139;-54
2022/08/14 08:59:27;;;;;;;2.20;2.10;;;29.00;49.80;;;;;;5092544;28;20027;-54
2022/08/14 09:02:01;;;;;;;1.90;1.80;;;29.30;85.30;;;;;;5074446;28;20028;-56
2022/08/14 09:04:33;;;;;;;2.33;2.13;;;29.40;85.30;;;;;;5092506;28;20028;-56
2022/08/14 09:06:59;;;;;;;2.20;2.00;;;;;;;;;;5092461;28;20025;-55
2022/08/14 09:09:26;;;;;;;2.78;1.90;;;29.10;84.90;;;;;;5092578;28;20039;-56
2022/08/14 09:11:54;;;;;;;2.40;2.08;;;29.20;47.90;;;;;;5092510;28;20016;-56
2022/08/14 09:14:24;;;;;;;2.45;2.25;;;29.10;85.00;;;;;;5092375;28;20032;-54
2022/08/14 09:16:50;;;;;;;2.10;1.90;;;29.30;47.80;;;;;;5092571;28;20451;-57
2022/08/14 09:19:17;;;;;;;1.50;1.40;;;;;;;;;;5092294;28;20075;-56
2022/08/14 09:21:42;;;;;;;1.85;1.75;;;29.20;84.50;;;;;;5092354;28;20028;-55
2022/08/14 09:24:09;;;;;;;2.03;1.83;;;;;;;;;;5092316;28;20020;-56
2022/08/14 09:26:36;;;;;;;2.13;2.00;;;29.60;49.70;;;;;;5092526;28;20386;-57
2022/08/14 09:29:03;;;;;;;2.08;1.88;;;29.70;84.90;;;;;;5092288;28;20016;-56
2022/08/14 09:31:29;;;;;;;2.22;2.03;;;29.10;84.40;;;;;;5092243;28;20093;-56
2022/08/14 09:34:09;;;;;;;1.98;1.88;;;29.20;84.20;;;;;;5092203;28;20035;-56
2022/08/14 09:36:40;;;;;;;2.00;1.90;;;29.40;84.50;;;;;;5092230;28;20439;-56
2022/08/14 09:39:44;;;;;;;1.85;1.75;;;29.90;52.00;;;;;;5092094;28;20063;-57
2022/08/14 09:42:35;;;;;;;2.00;1.90;;;29.40;84.50;;;;;;5091984;28;20116;-54
2022/08/14 09:45:17;;;;;;;3.20;2.05;;;28.90;83.70;;;;;;5091831;28;20368;-53
2022/08/14 09:47:56;;;;;;;2.13;2.03;;;27.40;85.60;;;;;;5095649;28;20526;-51
2022/08/14 09:50:22;;;;;;;2.25;2.05;;;;;;;;;;5095445;28;20024;-53
2022/08/14 09:53:05;;;;;;;3.28;2.22;;;26.50;51.70;;;;;;5095473;28;20028;-55
2022/08/14 09:55:34;;;;;;;4.38;2.53;;;25.90;86.70;;;;;;5095186;28;20028;-54
2022/08/14 09:58:15;;;;;;;2.80;2.33;;;26.10;79.80;;;;;;5095532;28;20035;-54
2022/08/14 10:00:47;;;;;;;3.45;2.42;;;25.80;63.30;;;;;;5095632;28;20050;-54
2022/08/14 10:03:26;;;;;;;5.25;2.53;;;25.40;87.20;;;;;;5095816;28;20138;-54
2022/08/14 10:06:13;;;;;;;2.53;2.33;;;25.20;87.20;;;;;;5095643;28;20382;-55
2022/08/14 10:08:42;;;;;;;3.33;2.40;;;25.50;52.90;;;;;;5095596;28;20116;-55
2022/08/14 10:11:21;;;;;;;2.75;2.30;;;25.70;74.80;;;;;;5095648;28;20028;-55
2022/08/14 10:13:53;;;;;;;5.20;2.55;;;26.10;86.40;;;;;;5095532;28;20424;-55
2022/08/14 10:16:23;;;;;;;5.43;2.50;;;26.30;85.80;;;;;;5095403;28;20059;-54
2022/08/14 10:18:59;;;;;;;3.33;2.53;;;25.70;84.60;;;;;;5095213;28;20043;-56
2022/08/14 10:21:25;;;;;;;8.13;2.30;;;;;;;;;;5095208;28;20020;-55
2022/08/14 10:23:51;;;;;;;5.75;2.70;;;26.00;84.20;;;;;;5095301;28;20089;-56
2022/08/14 10:26:18;;;;;;;4.78;2.60;;;26.60;84.10;;;;;;5095182;28;20024;-56
2022/08/14 10:29:03;;;;;;;3.88;2.50;;;26.30;48.50;;;;;;5095043;28;20427;-53
2022/08/14 10:31:30;;;;;;;2.88;2.55;;;26.30;84.00;;;;;;5094962;28;20023;-54
2022/08/14 10:34:03;;;;;;;5.55;2.78;;;26.20;48.30;;;;;;5094916;28;20375;-55
2022/08/14 10:36:31;;;;;;;2.80;2.50;;;26.20;48.20;;;;;;5094740;28;20474;-55
2022/08/14 10:39:05;;;;;;;2.75;2.40;;;26.20;83.70;;;;;;5094742;28;20082;-53
2022/08/14 10:41:38;;;;;;;5.35;2.42;;;26.20;43.50;;;;;;5094950;28;20027;-55
2022/08/14 10:44:10;;;;;;;3.20;2.53;;;26.20;48.40;;;;;;5094869;28;20024;-55
2022/08/14 10:47:01;;;;;;;3.83;2.38;;;25.90;43.40;;;;;;5094620;28;20020;-54
2022/08/14 10:49:28;;;;;;;5.38;2.35;;;26.00;48.20;;;;;;5094926;28;20028;-55
2022/08/14 10:52:09;;;;;;;2.85;2.60;;;27.30;44.70;;;;;;5094657;28;20056;-52
2022/08/14 10:54:43;;;;;;;3.80;2.40;;;25.80;48.70;;;;;;5094538;28;20039;-53
2022/08/14 10:57:29;;;;;;;2.88;2.63;;;25.90;43.80;;;;;;5093488;28;20547;-54
2022/08/14 10:59:59;;;;;;;6.15;2.80;;;25.70;48.50;;;;;;5094818;28;20032;-54
2022/08/14 11:02:28;;;;;;;2.50;2.30;;;25.90;48.60;;;;;;5094495;28;20382;-53
2022/08/14 11:05:03;;;;;;;3.10;2.17;;;26.10;45.60;;;;;;5094332;28;20059;-54
2022/08/14 11:07:30;;;;;;;2.92;2.65;;;25.60;47.80;;;;;;5094353;28;20089;-55
2022/08/14 11:09:58;;;;;;;3.83;2.58;;;25.80;48.30;;;;;;5094204;28;20146;-53
2022/08/14 11:12:26;;;;;;;3.92;2.63;;;25.80;48.20;;;;;;5094095;28;20024;-55
2022/08/14 11:14:58;;;;;;;3.83;2.30;;;25.80;43.30;;;;;;5094012;28;20036;-55
2022/08/14 11:17:25;;;;;;;2.70;2.50;;;26.00;47.00;;;;;;5094032;28;20379;-54
2022/08/14 11:19:58;;;;;;;4.38;2.88;;;25.80;47.90;;;;;;5093914;28;20027;-55
2022/08/14 11:22:29;;;;;;;8.15;2.83;;;25.80;48.20;;;;;;5093944;28;20024;-54
2022/08/14 11:25:00;;;;;;;2.85;2.47;;;25.70;48.20;;;;;;5093819;28;20032;-54
2022/08/14 11:27:27;;;;;;;4.15;2.60;;;25.70;48.00;;;;;;5093975;28;20028;-54
2022/08/14 11:29:55;;;;;;;3.60;2.50;;;;;;;;;;5093903;28;20020;-53
2022/08/14 11:32:21;;;;;;;2.45;2.25;;;25.90;83.80;;;;;;5093934;28;20066;-51
2022/08/14 11:34:47;;;;;;;2.40;2.20;;;26.00;73.30;;;;;;5093833;28;20463;-52
2022/08/14 11:37:13;;;;;;;3.65;2.78;;;25.30;49.50;;;;;;5093832;28;20124;-54
2022/08/14 11:39:40;;;;;;;2.50;2.30;;;;;;;;;;5093747;28;20027;-52
2022/08/14 11:42:17;;;;;;;5.75;2.58;;;25.60;48.10;;;;;;5093648;28;20020;-51
2022/08/14 11:44:43;;;;;;;2.55;2.10;;;;;;;;;;5093537;28;20034;-55
2022/08/14 11:47:18;;;;;;;3.20;2.47;;;25.30;72.20;;;;;;5093582;28;20459;-53
2022/08/14 11:49:44;;;;;;;3.42;2.05;;;;;;;;;;5093688;28;20032;-54
2022/08/14 11:52:11;;;;;;;4.30;2.47;;;;;;;;;;5093258;28;20031;-52
2022/08/14 11:54:37;;;;;;;5.20;2.50;;;25.30;83.00;;;;;;5093377;28;20038;-54
2022/08/14 11:57:04;;;;;;;4.00;2.55;;;26.00;81.00;;;;;;5092995;28;20614;-53
2022/08/14 11:59:32;;;;;;;2.53;2.33;;;;;;;;;;5093110;28;20020;-51
2022/08/14 12:02:16;;;;;;;2.60;2.40;;;25.50;83.70;;;;;;5093133;28;20020;-54
2022/08/14 12:04:52;;;;;;;5.72;2.65;;;25.10;44.10;;;;;;5093110;28;20031;-51
2022/08/14 12:07:19;;;;;;;2.70;2.50;;;25.40;45.00;;;;;;5092984;28;20433;-52
2022/08/14 12:09:50;;;;;;;2.92;2.60;;;25.50;46.10;;;;;;5092840;28;20025;-53
2022/08/14 12:12:18;;;;;;;2.67;2.33;;;25.50;48.00;;;;;;5092949;28;20031;-51
2022/08/14 12:15:05;;;;;;;2.78;2.35;;;25.50;43.00;;;;;;5092967;28;20027;-53
2022/08/14 12:17:43;;;;;;;3.40;2.60;;;25.50;48.30;;;;;;5092862;28;20076;-53
2022/08/14 12:20:10;;;;;;;2.80;2.60;;;25.80;84.30;;;;;;5092794;28;20020;-51
2022/08/14 12:22:43;;;;;;;4.13;2.40;;;25.40;43.30;;;;;;5092773;28;20052;-51
2022/08/14 12:25:11;;;;;;;2.50;2.30;;;25.40;48.30;;;;;;5092831;28;20020;-54
2022/08/14 12:27:50;;;;;;;2.88;2.20;;;25.60;84.20;;;;;;5092709;28;20116;-54
2022/08/14 12:30:38;;;;;;;2.33;2.13;;;25.50;43.50;;;;;;5092978;28;20447;-53
2022/08/14 12:33:07;;;;;;;11.18;2.70;;;25.40;45.90;;;;;;5092609;28;20278;-50
2022/08/14 12:35:41;;;;;;;4.80;2.45;;;25.60;84.40;;;;;;5092676;28;20074;-49
2022/08/14 12:38:09;;;;;;;4.10;2.70;;;25.60;84.50;;;;;;5092589;28;20543;-51
2022/08/14 12:40:46;;;;;;;2.70;2.50;;;25.60;84.80;;;;;;5092612;28;20027;-50
2022/08/14 12:43:12;;;;;;;7.07;2.92;;;;;;;;;;5092650;28;20024;-50
2022/08/14 12:45:37;;;;;;;2.83;2.50;;;25.20;84.90;;;;;;5092585;28;20032;-50
2022/08/14 12:48:04;;;;;;;2.90;2.70;;;25.80;49.00;;;;;;5092434;28;20119;-50
2022/08/14 12:50:40;;;;;;;2.63;2.13;;;25.30;47.00;;;;;;5092463;28;20111;-51
2022/08/14 12:53:08;;;;;;;3.50;2.47;;;25.10;49.40;;;;;;5092368;28;20031;-53
2022/08/14 12:55:38;;;;;;;2.50;2.30;;;25.30;49.70;;;;;;5092064;28;20036;-49
2022/08/14 12:58:05;;;;;;;5.13;2.90;;;25.50;85.20;;;;;;5092212;28;20647;-50
2022/08/14 13:00:46;;;;;;;3.33;2.20;;;25.60;85.20;;;;;;5092240;28;20394;-51
2022/08/14 13:03:26;;;;;;;2.22;2.03;;;25.20;49.50;;;;;;5092226;28;20031;-50
2022/08/14 13:05:52;;;;;;;2.60;2.40;;;;;;;;;;5092311;28;20020;-52
2022/08/14 13:08:20;;;;;;;5.25;2.95;;;;;;;;;;5092197;28;20036;-51
2022/08/14 13:10:46;;;;;;;3.40;2.45;;;25.20;49.60;;;;;;5092231;28;20378;-51
2022/08/14 13:13:18;;;;;;;3.05;2.50;;;25.20;49.40;;;;;;5091981;28;20506;-49
2022/08/14 13:15:45;;;;;;;2.67;2.47;;;24.90;49.10;;;;;;5092094;28;20032;-50
2022/08/14 13:18:16;;;;;;;2.30;2.10;;;25.40;84.80;;;;;;5091916;28;20042;-50
2022/08/14 13:20:42;;;;;;;3.13;2.60;;;;;;;;;;5091510;28;20046;-49
2022/08/14 13:23:09;;;;;;;2.53;2.33;;;25.00;49.30;;;;;;5092105;28;20059;-49
2022/08/14 13:25:39;;;;;;;2.80;2.60;;;;;;;;;;5092448;28;20472;-49
2022/08/14 13:28:05;;;;;;;2.50;2.30;;;25.30;84.60;;;;;;5092295;28;20028;-50
2022/08/14 13:30:32;;;;;;;2.65;2.45;;;;;;;;;;5092021;28;20024;-50
2022/08/14 13:32:59;;;;;;;3.22;2.60;;;;;;;;;;5092115;28;20439;-49
2022/08/14 13:35:26;;;;;;;2.95;2.70;;;;;;;;;;5092293;28;20047;-50